createdAt,value
2019-03-25T00:01:47.765Z,99387.31
2019-03-25T00:04:18.001Z,99376.83
2019-03-25T00:06:48.807Z,99385.50
2019-03-25T00:09:17.883Z,99377.41
2019-03-25T00:11:48.035Z,99372.91
2019-03-25T00:14:18.732Z,99369.67
2019-03-25T00:16:47.878Z,99379.59
2019-03-25T00:19:17.990Z,99375.48
2019-03-25T00:21:48.330Z,99371.69
2019-03-25T00:24:18.629Z,99367.84
2019-03-25T00:26:49.132Z,99365.36
2019-03-25T00:29:19.493Z,99365.36
2019-03-25T00:31:51.058Z,99367.35
2019-03-25T00:34:21.982Z,99367.35
2019-03-25T00:36:52.324Z,99376.83
2019-03-25T00:39:22.763Z,99372.33
2019-03-25T00:41:52.157Z,99354.41
2019-03-25T00:44:22.511Z,99371.80
2019-03-25T00:46:52.905Z,99365.10
2019-03-25T00:49:23.110Z,99365.10
2019-03-25T00:51:53.614Z,99361.77
2019-03-25T00:54:24.042Z,99361.27
2019-03-25T00:56:54.769Z,99361.27
2019-03-25T00:59:24.945Z,99367.41
2019-03-25T01:01:54.993Z,99358.81
2019-03-25T01:04:25.563Z,99366.59
2019-03-25T01:06:55.056Z,99360.56
2019-03-25T01:09:25.965Z,99364.63
2019-03-25T01:11:56.588Z,99358.47
2019-03-25T01:14:27.040Z,99363.42
2019-03-25T01:16:57.594Z,99364.36
2019-03-25T01:19:28.265Z,99341.98
2019-03-25T01:21:59.045Z,99341.98
2019-03-25T01:24:29.713Z,99366.70
2019-03-25T01:26:59.283Z,99350.05
2019-03-25T01:29:29.926Z,99350.05
2019-03-25T01:32:00.031Z,99353.70
2019-03-25T01:34:30.875Z,99351.44
2019-03-25T01:37:01.010Z,99360.00
2019-03-25T01:39:31.055Z,99361.02
2019-03-25T01:42:01.937Z,99353.66
2019-03-25T01:44:32.489Z,99360.13
2019-03-25T01:47:03.118Z,99361.77
2019-03-25T01:49:33.945Z,99360.34
2019-03-25T01:52:05.917Z,99361.39
2019-03-25T01:54:36.022Z,99360.31
2019-03-25T01:57:06.922Z,99355.53
2019-03-25T01:59:37.445Z,99352.00
2019-03-25T02:02:08.003Z,99357.91
2019-03-25T02:04:38.534Z,99357.39
2019-03-25T02:07:08.933Z,99353.98
2019-03-25T02:09:39.314Z,99358.67
2019-03-25T02:12:09.991Z,99357.66
2019-03-25T02:14:40.588Z,99349.25
2019-03-25T02:17:11.319Z,99359.27
2019-03-25T02:19:41.874Z,99359.27
2019-03-25T02:22:12.002Z,99367.47
2019-03-25T02:24:42.110Z,99365.05
2019-03-25T02:27:12.559Z,99366.89
2019-03-25T02:29:42.886Z,99367.55
2019-03-25T02:32:13.417Z,99360.99
2019-03-25T02:34:44.595Z,99364.47
2019-03-25T02:37:14.849Z,99359.01
2019-03-25T02:39:44.997Z,99359.01
2019-03-25T02:42:14.939Z,99352.51
2019-03-25T02:44:44.969Z,99351.09
2019-03-25T02:47:14.972Z,99350.17
2019-03-25T02:49:45.300Z,99347.64
2019-03-25T02:52:15.722Z,99337.70
2019-03-25T02:54:44.862Z,99344.03
2019-03-25T02:57:14.965Z,99333.27
2019-03-25T02:59:44.941Z,99344.03
2019-03-25T03:02:15.100Z,99342.04
2019-03-25T03:04:45.696Z,99348.32
2019-03-25T03:07:14.932Z,99356.78
2019-03-25T03:09:44.990Z,99344.30
2019-03-25T03:12:15.755Z,99351.56
2019-03-25T03:14:46.038Z,99343.70
2019-03-25T03:17:16.916Z,99345.97
2019-03-25T03:19:47.159Z,99349.72
2019-03-25T03:22:17.538Z,99353.36
2019-03-25T03:24:48.032Z,99354.13
2019-03-25T03:27:18.566Z,99352.28
2019-03-25T03:29:48.928Z,99343.22
2019-03-25T03:32:19.170Z,99345.41
2019-03-25T03:34:49.761Z,99347.97
2019-03-25T03:37:18.967Z,99347.44
2019-03-25T03:39:49.076Z,99341.30
2019-03-25T03:42:19.645Z,99352.11
2019-03-25T03:44:49.160Z,99343.73
2019-03-25T03:47:19.546Z,99346.71
2019-03-25T03:49:49.694Z,99346.30
2019-03-25T03:52:18.978Z,99345.66
2019-03-25T03:54:49.449Z,99344.91
2019-03-25T03:57:20.312Z,99347.98
2019-03-25T03:59:51.759Z,99349.59
2019-03-25T04:02:20.851Z,99347.05
2019-03-25T04:04:53.164Z,99337.90
2019-03-25T04:07:24.569Z,99347.45
2019-03-25T04:09:54.860Z,99347.16
2019-03-25T04:12:24.937Z,99342.34
2019-03-25T04:14:58.242Z,99350.52
2019-03-25T04:17:28.576Z,99341.59
2019-03-25T04:19:58.903Z,99341.81
2019-03-25T04:22:28.998Z,99341.81
2019-03-25T04:24:58.987Z,99342.73
2019-03-25T04:27:29.007Z,99340.08
2019-03-25T04:29:59.020Z,99340.94
2019-03-25T04:32:28.946Z,99341.70
2019-03-25T04:34:59.070Z,99337.89
2019-03-25T04:37:30.564Z,99343.12
2019-03-25T04:40:00.853Z,99342.98
2019-03-25T04:42:32.388Z,99346.91
2019-03-25T04:45:02.721Z,99347.77
2019-03-25T04:47:33.142Z,99349.32
2019-03-25T04:50:03.722Z,99350.53
2019-03-25T04:52:32.849Z,99352.65
2019-03-25T04:55:02.869Z,99357.14
2019-03-25T04:57:33.020Z,99358.45
2019-03-25T05:00:03.969Z,99352.18
2019-03-25T05:02:34.506Z,99349.44
2019-03-25T05:05:05.418Z,99349.44
2019-03-25T05:07:35.700Z,99349.44
2019-03-25T05:10:06.081Z,99354.26
2019-03-25T05:12:36.913Z,99355.13
2019-03-25T05:15:08.528Z,99354.97
2019-03-25T05:17:39.292Z,99349.75
2019-03-25T05:20:09.875Z,99348.59
2019-03-25T05:22:40.012Z,99351.85
2019-03-25T05:25:10.117Z,99351.36
2019-03-25T05:27:40.545Z,99353.73
2019-03-25T05:30:12.843Z,99360.08
2019-03-25T05:32:43.050Z,99360.08
2019-03-25T05:35:13.551Z,99354.94
2019-03-25T05:37:43.726Z,99357.23
2019-03-25T05:40:13.112Z,99357.05
2019-03-25T05:42:43.418Z,99354.61
2019-03-25T05:45:13.934Z,99353.27
2019-03-25T05:47:44.060Z,99355.01
2019-03-25T05:50:14.560Z,99354.14
2019-03-25T05:52:44.955Z,99358.81
2019-03-25T05:55:15.077Z,99355.84
2019-03-25T05:57:45.719Z,99355.32
2019-03-25T06:00:16.406Z,99362.63
2019-03-25T06:02:46.935Z,99363.22
2019-03-25T06:05:17.834Z,99355.49
2019-03-25T06:07:48.725Z,99355.66
2019-03-25T06:10:20.637Z,99354.00
2019-03-25T06:12:49.900Z,99358.16
2019-03-25T06:15:22.000Z,99356.83
2019-03-25T06:17:52.830Z,99357.48
2019-03-25T06:20:23.458Z,99356.28
2019-03-25T06:22:57.495Z,99355.63
2019-03-25T06:25:29.487Z,99352.23
2019-03-25T06:28:00.105Z,99355.36
2019-03-25T06:30:33.577Z,99354.54
2019-03-25T06:33:12.461Z,99353.48
2019-03-25T06:35:37.142Z,99353.48
2019-03-25T06:38:07.907Z,99351.67
2019-03-25T06:40:39.484Z,99347.05
2019-03-25T06:43:10.096Z,99350.98
2019-03-25T06:45:40.596Z,99350.68
2019-03-25T06:48:11.098Z,99351.23
2019-03-25T06:50:41.975Z,99351.23
2019-03-25T06:53:12.724Z,99358.31
2019-03-25T06:55:43.478Z,99358.98
2019-03-25T06:58:14.028Z,99359.66
2019-03-25T07:00:46.011Z,99359.66
2019-03-25T07:03:17.362Z,99356.84
2019-03-25T07:05:48.168Z,99364.66
2019-03-25T07:08:18.994Z,99359.98
2019-03-25T07:10:49.984Z,99361.86
2019-03-25T07:13:21.006Z,99365.67
2019-03-25T07:15:52.295Z,99364.27
2019-03-25T07:18:23.304Z,99363.59
2019-03-25T07:20:53.970Z,99368.75
2019-03-25T07:23:24.435Z,99359.39
2019-03-25T07:25:55.608Z,99360.09
2019-03-25T07:28:26.140Z,99360.27
2019-03-25T07:30:56.957Z,99362.46
2019-03-25T07:33:27.971Z,99365.61
2019-03-25T07:35:58.990Z,99363.50
2019-03-25T07:38:29.460Z,99359.64
2019-03-25T07:41:00.115Z,99362.06
2019-03-25T07:43:30.886Z,99355.16
2019-03-25T07:46:01.868Z,99358.86
2019-03-25T07:48:32.631Z,99357.86
2019-03-25T07:51:03.033Z,99337.61
2019-03-25T07:53:33.995Z,99337.61
2019-03-25T07:56:04.791Z,99334.19
2019-03-25T07:58:34.998Z,99338.83
2019-03-25T08:01:05.030Z,99343.99
2019-03-25T08:03:35.951Z,99335.94
2019-03-25T08:06:06.864Z,99341.44
2019-03-25T08:08:37.416Z,99339.69
2019-03-25T08:11:07.963Z,99339.63
2019-03-25T08:13:38.690Z,99338.44
2019-03-25T08:16:09.150Z,99339.84
2019-03-25T08:18:39.549Z,99341.02
2019-03-25T08:21:09.842Z,99330.05
2019-03-25T08:23:39.937Z,99338.24
2019-03-25T08:26:09.983Z,99338.69
2019-03-25T08:28:40.028Z,99340.04
2019-03-25T08:31:10.547Z,99344.48
2019-03-25T08:33:40.922Z,99332.47
2019-03-25T08:36:11.106Z,99332.47
2019-03-25T08:38:53.939Z,99337.14
2019-03-25T08:41:24.968Z,99337.16
2019-03-25T08:43:56.020Z,99334.02
2019-03-25T08:46:26.923Z,99338.98
2019-03-25T08:48:57.233Z,99338.98
2019-03-25T08:51:28.761Z,99342.45
2019-03-25T08:53:57.894Z,99335.86
2019-03-25T08:56:28.490Z,99340.34
2019-03-25T08:58:58.939Z,99329.34
2019-03-25T09:01:29.735Z,99329.34
2019-03-25T09:03:58.995Z,99335.20
2019-03-25T09:07:19.733Z,99325.05
2019-03-25T09:09:48.992Z,99342.60
2019-03-25T09:12:19.523Z,99338.09
2019-03-25T09:14:49.838Z,99340.25
2019-03-25T09:17:19.882Z,99335.87
2019-03-25T09:19:50.300Z,99342.92
2019-03-25T09:22:20.915Z,99344.83
2019-03-25T09:24:51.441Z,99330.61
2019-03-25T09:27:21.967Z,99323.88
2019-03-25T09:29:53.568Z,99319.86
2019-03-25T09:32:23.702Z,99319.37
2019-03-25T09:34:53.615Z,99317.67
2019-03-25T09:37:22.983Z,99324.99
2019-03-25T09:39:53.690Z,99327.51
2019-03-25T09:42:24.295Z,99324.95
2019-03-25T09:44:58.332Z,99326.76
2019-03-25T09:47:29.121Z,99325.10
2019-03-25T09:50:00.969Z,99319.83
2019-03-25T09:52:38.422Z,99320.17
2019-03-25T09:55:07.300Z,99315.42
2019-03-25T09:57:38.320Z,99317.08
2019-03-25T10:00:11.139Z,99308.55
2019-03-25T10:02:42.417Z,99306.94
2019-03-25T10:05:12.534Z,99302.09
2019-03-25T10:07:43.462Z,99326.49
2019-03-25T10:10:15.098Z,99326.49
2019-03-25T10:12:46.000Z,99329.55
2019-03-25T10:15:17.438Z,99334.83
2019-03-25T10:17:48.115Z,99321.56
2019-03-25T10:20:19.962Z,99321.56
2019-03-25T10:22:51.148Z,99335.97
2019-03-25T10:25:22.136Z,99335.97
2019-03-25T10:27:53.298Z,99347.53
2019-03-25T10:30:24.355Z,99345.86
2019-03-25T10:32:55.307Z,99345.81
2019-03-25T10:35:25.100Z,99343.85
2019-03-25T10:37:56.026Z,99343.85
2019-03-25T10:40:52.770Z,99341.34
2019-03-25T10:43:24.743Z,99341.92
2019-03-25T10:45:55.597Z,99348.36
2019-03-25T10:48:36.546Z,99336.78
2019-03-25T10:51:07.132Z,99342.95
2019-03-25T10:53:38.153Z,99342.95
2019-03-25T10:56:08.994Z,99347.67
2019-03-25T10:58:39.534Z,99333.27
2019-03-25T11:01:12.432Z,99330.00
2019-03-25T11:03:43.107Z,99320.95
2019-03-25T11:06:14.019Z,99321.23
2019-03-25T11:08:44.925Z,99325.23
2019-03-25T11:11:15.306Z,99321.03
2019-03-25T11:13:45.914Z,99324.60
2019-03-25T11:16:16.047Z,99315.50
2019-03-25T11:18:46.885Z,99326.33
2019-03-25T11:21:17.680Z,99319.69
2019-03-25T11:23:46.915Z,99316.53
2019-03-25T11:26:17.703Z,99316.53
2019-03-25T11:28:48.999Z,99302.52
2019-03-25T11:31:19.329Z,99305.57
2019-03-25T11:33:50.292Z,99306.70
2019-03-25T11:36:20.960Z,99301.46
2019-03-25T11:38:51.555Z,99292.59
2019-03-25T11:41:22.143Z,99334.74
2019-03-25T11:43:52.600Z,99334.74
2019-03-25T11:46:23.962Z,99371.38
2019-03-25T11:48:55.770Z,99345.00
2019-03-25T11:51:24.969Z,99331.36
2019-03-25T11:53:55.835Z,99338.57
2019-03-25T11:56:27.609Z,99326.26
2019-03-25T11:58:56.931Z,99328.25
2019-03-25T12:01:27.744Z,99327.12
2019-03-25T12:03:56.996Z,99331.75
2019-03-25T12:06:28.281Z,99345.55
2019-03-25T12:08:58.960Z,99330.45
2019-03-25T12:11:29.922Z,99323.12
2019-03-25T12:14:00.735Z,99313.80
2019-03-25T12:16:31.932Z,99313.41
2019-03-25T12:19:02.657Z,99307.02
2019-03-25T12:21:33.606Z,99290.61
2019-03-25T12:24:03.516Z,99290.61
2019-03-25T12:26:34.106Z,99288.53
2019-03-25T12:29:29.934Z,99280.20
2019-03-25T12:31:58.850Z,99291.13
2019-03-25T12:34:29.204Z,99284.51
2019-03-25T12:37:00.060Z,99289.43
2019-03-25T12:39:30.953Z,99301.05
2019-03-25T12:42:02.109Z,99313.34
2019-03-25T12:44:32.940Z,99312.48
2019-03-25T12:47:03.999Z,99322.25
2019-03-25T12:49:36.321Z,99301.95
2019-03-25T12:52:07.490Z,99305.80
2019-03-25T12:54:38.002Z,99305.30
2019-03-25T12:57:09.145Z,99295.51
2019-03-25T12:59:41.501Z,99302.20
2019-03-25T13:02:12.797Z,99296.22
2019-03-25T13:04:43.814Z,99295.62
2019-03-25T13:07:15.061Z,99299.50
2019-03-25T13:09:46.430Z,99310.28
2019-03-25T13:12:17.129Z,99352.89
2019-03-25T13:14:48.778Z,99352.89
2019-03-25T13:17:19.653Z,99365.25
2019-03-25T13:19:50.972Z,99355.30
2019-03-25T13:22:24.677Z,99347.06
2019-03-25T13:24:56.313Z,99316.75
2019-03-25T13:27:27.294Z,99316.75
2019-03-25T13:29:58.495Z,99311.84
2019-03-25T13:32:29.462Z,99309.30
2019-03-25T13:35:00.396Z,99309.61
2019-03-25T13:37:31.298Z,99309.61
2019-03-25T13:40:02.510Z,99309.61
2019-03-25T13:45:17.157Z,99295.12
2019-03-25T13:47:48.139Z,99292.92
2019-03-25T13:50:20.189Z,99293.50
2019-03-25T13:52:51.410Z,99281.17
2019-03-25T13:55:22.378Z,99281.06
2019-03-25T13:57:53.313Z,99282.46
2019-03-25T14:00:42.316Z,99271.32
2019-03-25T14:03:13.951Z,99276.41
2019-03-25T14:05:44.479Z,99279.93
2019-03-25T14:08:17.334Z,99266.97
2019-03-25T14:10:47.926Z,99266.97
2019-03-25T14:13:18.473Z,99270.88
2019-03-25T14:15:48.938Z,99268.12
2019-03-25T14:18:19.112Z,99278.84
2019-03-25T14:20:49.571Z,99284.23
2019-03-25T14:23:19.945Z,99334.14
2019-03-25T14:25:50.426Z,99334.14
2019-03-25T14:28:21.134Z,99374.45
2019-03-25T14:30:51.591Z,99406.59
2019-03-25T14:33:21.111Z,99420.22
2019-03-25T14:35:51.937Z,99434.86
2019-03-25T14:38:23.329Z,99434.09
2019-03-25T14:40:55.472Z,99427.81
2019-03-25T14:43:26.084Z,99426.95
2019-03-25T14:45:56.917Z,99424.73
2019-03-25T14:48:27.539Z,99410.18
2019-03-25T14:50:56.934Z,99383.27
2019-03-25T14:53:27.522Z,99383.27
2019-03-25T14:55:58.062Z,99374.10
2019-03-25T14:58:29.113Z,99382.03
2019-03-25T15:01:00.088Z,99383.59
2019-03-25T15:03:32.936Z,99374.67
2019-03-25T15:06:03.283Z,99381.08
2019-03-25T15:08:34.140Z,99379.75
2019-03-25T15:11:04.760Z,99375.87
2019-03-25T15:13:36.228Z,99376.56
2019-03-25T15:16:06.597Z,99380.86
2019-03-25T15:18:36.378Z,99379.31
2019-03-25T15:21:07.295Z,99377.19
2019-03-25T15:23:37.838Z,99380.62
2019-03-25T15:26:09.302Z,99364.72
2019-03-25T15:28:40.288Z,99367.50
2019-03-25T15:31:11.301Z,99363.67
2019-03-25T15:33:42.216Z,99373.98
2019-03-25T15:36:12.764Z,99371.13
2019-03-25T15:38:42.036Z,99366.94
2019-03-25T15:41:13.316Z,99374.22
2019-03-25T15:43:43.890Z,99374.68
2019-03-25T15:46:14.458Z,99381.20
2019-03-25T15:48:44.973Z,99370.28
2019-03-25T15:51:15.096Z,99366.27
2019-03-25T15:53:45.926Z,99365.64
2019-03-25T15:56:16.426Z,99367.06
2019-03-25T15:58:47.526Z,99368.64
2019-03-25T16:01:17.938Z,99383.85
2019-03-25T16:03:48.656Z,99383.85
2019-03-25T16:06:22.293Z,99380.61
2019-03-25T16:08:52.859Z,99380.61
2019-03-25T16:11:24.101Z,99370.09
2019-03-25T16:14:01.116Z,99370.55
2019-03-25T16:16:34.812Z,99364.61
2019-03-25T16:19:05.298Z,99360.73
2019-03-25T16:21:36.124Z,99368.05
2019-03-25T16:24:07.510Z,99380.70
2019-03-25T17:34:12.977Z,99504.09
2019-03-25T17:36:43.581Z,99502.81
2019-03-25T17:39:14.054Z,99500.08
2019-03-25T17:41:44.763Z,99500.08
2019-03-25T17:44:16.050Z,99502.61
2019-03-25T17:46:47.527Z,99502.41
2019-03-25T17:49:17.479Z,99508.53
2019-03-25T17:51:48.344Z,99508.53
2019-03-25T17:54:18.946Z,99523.09
2019-03-25T17:56:49.487Z,99537.65
2019-03-25T17:59:19.936Z,99531.77
2019-03-25T18:01:50.633Z,99534.19
2019-03-25T18:04:20.953Z,99533.42
2019-03-25T18:06:51.228Z,99535.45
2019-03-25T18:09:21.948Z,99533.70
2019-03-25T18:11:52.123Z,99524.48
2019-03-25T18:14:22.764Z,99519.69
2019-03-25T18:16:51.983Z,99526.69
2019-03-25T18:19:22.563Z,99528.37
2019-03-25T18:21:52.919Z,99533.24
2019-03-25T18:24:23.297Z,99542.81
2019-03-25T18:26:54.020Z,99541.97
2019-03-25T18:29:24.740Z,99541.47
2019-03-25T18:31:53.879Z,99543.54
2019-03-25T18:34:24.667Z,99546.01
2019-03-25T18:36:54.982Z,99548.34
2019-03-25T18:39:25.117Z,99548.34
2019-03-25T18:41:57.877Z,99557.77
2019-03-25T18:44:28.123Z,99559.51
2019-03-25T18:46:58.607Z,99571.80
2019-03-25T18:49:29.137Z,99557.77
2019-03-25T18:51:59.977Z,99557.77
2019-03-25T18:54:31.473Z,99569.13
2019-03-25T18:57:01.938Z,99562.55
2019-03-25T18:59:33.154Z,99562.55
2019-03-25T19:02:03.945Z,99578.91
2019-03-25T19:04:34.311Z,99578.11
2019-03-25T19:07:05.023Z,99579.48
2019-03-25T19:09:36.046Z,99581.15
2019-03-25T19:12:06.615Z,99584.56
2019-03-25T19:14:37.572Z,99583.20
2019-03-25T19:17:08.624Z,99583.95
2019-03-25T19:19:39.037Z,99577.77
2019-03-25T19:22:12.556Z,99577.77
2019-03-25T19:24:43.453Z,99575.36
2019-03-25T19:27:14.304Z,99575.89
2019-03-25T19:29:45.081Z,99575.89
2019-03-25T19:32:16.287Z,99581.72
2019-03-25T19:34:48.060Z,99583.35
2019-03-25T19:37:19.331Z,99580.14
2019-03-25T19:39:50.733Z,99578.91
2019-03-25T19:42:22.339Z,99579.19
2019-03-25T19:44:53.347Z,99587.00
2019-03-25T19:47:25.375Z,99583.98
2019-03-25T19:49:57.305Z,99581.72
2019-03-25T19:52:28.735Z,99586.23
2019-03-25T19:55:00.460Z,99585.53
2019-03-25T19:57:32.345Z,99593.63
2019-03-25T20:00:04.499Z,99599.53
2019-03-25T20:02:36.148Z,99596.48
2019-03-25T20:05:08.337Z,99596.48
2019-03-25T20:07:40.514Z,99619.05
2019-03-25T20:10:33.269Z,99619.05
2019-03-25T20:13:05.754Z,99623.91
2019-03-25T20:15:45.860Z,99631.00
2019-03-25T20:18:11.505Z,99640.98
2019-03-25T20:20:42.699Z,99639.77
2019-03-25T20:23:14.506Z,99639.77
2019-03-25T20:25:44.966Z,99623.31
2019-03-25T20:28:16.808Z,99623.31
2019-03-25T20:30:48.501Z,99641.45
2019-03-25T20:33:21.389Z,99658.35
2019-03-25T20:35:52.150Z,99648.47
2019-03-25T20:38:23.598Z,99648.47
2019-03-25T20:40:53.400Z,99663.07
2019-03-25T20:43:24.866Z,99662.24
2019-03-25T20:45:56.323Z,99662.24
2019-03-25T20:48:27.748Z,99658.63
2019-03-25T20:50:58.644Z,99658.63
2019-03-25T20:53:28.453Z,99675.66
2019-03-25T20:55:59.583Z,99674.84
2019-03-25T20:58:29.878Z,99671.25
2019-03-25T21:01:01.131Z,99663.59
2019-03-25T21:03:32.411Z,99671.23
2019-03-25T21:06:03.587Z,99662.44
2019-03-25T21:08:34.154Z,99662.44
2019-03-25T21:11:05.459Z,99683.23
2019-03-25T21:13:36.523Z,99699.41
2019-03-25T21:16:07.470Z,99692.66
2019-03-25T21:18:38.393Z,99701.26
2019-03-25T21:21:09.325Z,99701.26
2019-03-25T21:23:41.315Z,99700.39
2019-03-25T21:26:11.973Z,99706.35
2019-03-25T21:28:44.342Z,99708.14
2019-03-25T21:31:15.970Z,99705.83
2019-03-25T21:33:47.110Z,99705.83
2019-03-25T21:36:18.118Z,99711.17
2019-03-25T21:38:49.353Z,99716.42
2019-03-25T21:41:20.836Z,99716.88
2019-03-25T21:43:52.374Z,99718.97
2019-03-25T21:46:23.043Z,99720.73
2019-03-25T21:48:56.148Z,99721.84
2019-03-25T21:51:27.053Z,99728.55
2019-03-25T21:53:58.188Z,99726.24
2019-03-25T21:56:28.964Z,99717.11
2019-03-25T21:59:00.568Z,99721.03
2019-03-25T22:01:30.795Z,99731.44
2019-03-25T22:04:01.638Z,99735.51
2019-03-25T22:06:31.267Z,99725.59
2019-03-25T22:09:02.766Z,99737.22
2019-03-25T22:11:34.152Z,99740.58
2019-03-25T22:14:05.312Z,99750.84
2019-03-25T22:16:36.145Z,99745.98
2019-03-25T22:19:07.044Z,99744.03
2019-03-25T22:21:37.775Z,99736.95
2019-03-25T22:24:08.624Z,99744.28
2019-03-25T22:26:39.499Z,99743.61
2019-03-25T22:29:16.475Z,99748.64
2019-03-25T22:31:47.308Z,99748.66
2019-03-25T22:34:18.006Z,99748.66
2019-03-25T22:36:49.139Z,99750.83
2019-03-25T22:39:20.324Z,99763.70
2019-03-25T22:41:51.382Z,99759.46
2019-03-25T22:44:21.994Z,99765.64
2019-03-25T22:46:53.133Z,99767.64
2019-03-25T22:49:24.066Z,99765.33
2019-03-25T22:51:55.135Z,99773.57
2019-03-25T22:54:26.080Z,99773.67
2019-03-25T22:56:57.051Z,99773.56
2019-03-25T22:59:28.109Z,99780.68
2019-03-25T23:01:59.027Z,99791.80
2019-03-25T23:04:30.002Z,99798.30
2019-03-25T23:07:01.106Z,99798.56
2019-03-25T23:09:32.301Z,99807.58
2019-03-25T23:12:05.467Z,99803.28
2019-03-25T23:14:35.863Z,99803.23
2019-03-25T23:17:07.325Z,99801.73
2019-03-25T23:19:39.323Z,99807.41
2019-03-25T23:22:10.128Z,99812.03
2019-03-25T23:24:41.039Z,99809.58
2019-03-25T23:27:12.419Z,99804.32
2019-03-25T23:29:43.737Z,99801.69
2019-03-25T23:32:13.486Z,99799.43
2019-03-25T23:34:44.293Z,99805.95
2019-03-25T23:37:15.302Z,99805.95
2019-03-25T23:39:45.968Z,99821.58
2019-03-25T23:42:18.302Z,99821.02
2019-03-25T23:44:49.119Z,99821.01
2019-03-25T23:47:20.413Z,99830.41
2019-03-25T23:49:51.968Z,99832.31
2019-03-25T23:55:16.494Z,99843.70
2019-03-25T23:57:47.113Z,99843.70
